createdAt,value
2018-11-12T00:00:34.623Z,26.13
2018-11-12T00:03:02.915Z,22.00
2018-11-12T00:05:31.164Z,28.70
2018-11-12T00:07:59.964Z,24.97
2018-11-12T00:10:28.144Z,28.00
2018-11-12T00:12:56.366Z,31.30
2018-11-12T00:15:24.595Z,25.77
2018-11-12T00:17:52.777Z,24.27
2018-11-12T00:20:20.987Z,31.45
2018-11-12T00:22:49.522Z,29.65
2018-11-12T00:25:17.765Z,29.10
2018-11-12T00:27:45.960Z,33.85
2018-11-12T00:30:15.775Z,27.83
2018-11-12T00:32:48.939Z,32.10
2018-11-12T00:35:17.180Z,27.70
2018-11-12T00:37:45.850Z,30.00
2018-11-12T00:40:16.110Z,26.90
2018-11-12T00:42:45.668Z,29.98
2018-11-12T00:45:14.276Z,28.53
2018-11-12T00:47:42.771Z,31.50
2018-11-12T00:50:12.233Z,37.63
2018-11-12T00:52:40.504Z,33.40
2018-11-12T00:55:10.194Z,36.57
2018-11-12T00:57:38.706Z,39.37
2018-11-12T01:00:11.311Z,38.67
2018-11-12T01:02:44.398Z,37.83
2018-11-12T01:05:12.855Z,30.60
2018-11-12T01:07:41.695Z,32.45
2018-11-12T01:10:11.777Z,32.30
2018-11-12T01:12:40.193Z,33.80
2018-11-12T01:15:10.424Z,37.20
2018-11-12T01:17:38.640Z,29.50
2018-11-12T01:20:07.851Z,34.27
2018-11-12T01:22:36.984Z,40.20
2018-11-12T01:25:05.892Z,35.55
2018-11-12T01:27:34.228Z,36.83
2018-11-12T01:30:02.464Z,42.65
2018-11-12T01:32:30.670Z,38.47
2018-11-12T01:34:58.888Z,36.13
2018-11-12T01:37:27.128Z,45.40
2018-11-12T01:39:56.229Z,49.93
2018-11-12T01:42:24.430Z,39.47
2018-11-12T01:44:52.656Z,42.40
2018-11-12T01:47:21.492Z,42.08
2018-11-12T01:49:49.860Z,42.67
2018-11-12T01:52:18.072Z,46.93
2018-11-12T01:54:46.277Z,39.87
2018-11-12T01:57:14.503Z,38.77
2018-11-12T01:59:43.075Z,49.00
2018-11-12T02:02:11.310Z,40.37
2018-11-12T02:04:39.713Z,45.83
2018-11-12T02:07:07.935Z,42.13
2018-11-12T02:09:36.116Z,49.33
2018-11-12T02:12:04.614Z,48.87
2018-11-12T02:14:32.860Z,40.90
2018-11-12T02:17:01.009Z,46.13
2018-11-12T02:19:29.204Z,42.37
2018-11-12T02:21:57.501Z,38.85
2018-11-12T02:24:25.744Z,45.93
2018-11-12T02:26:54.927Z,39.23
2018-11-12T02:29:23.179Z,49.40
2018-11-12T02:31:51.447Z,46.10
2018-11-12T02:34:19.795Z,41.33
2018-11-12T02:36:48.091Z,43.07
2018-11-12T02:39:16.369Z,41.90
2018-11-12T02:41:44.599Z,41.67
2018-11-12T02:44:12.796Z,45.20
2018-11-12T02:46:41.011Z,42.43
2018-11-12T02:49:09.204Z,38.70
2018-11-12T02:51:40.682Z,41.77
2018-11-12T02:54:09.529Z,41.92
2018-11-12T02:56:37.736Z,36.30
2018-11-12T02:59:05.951Z,41.65
2018-11-12T03:01:34.153Z,38.50
2018-11-12T03:04:14.054Z,46.33
2018-11-12T03:06:42.273Z,38.83
2018-11-12T03:09:12.729Z,40.25
2018-11-12T03:11:41.252Z,46.67
2018-11-12T03:14:09.665Z,37.83
2018-11-12T03:16:38.128Z,40.83
2018-11-12T03:19:09.908Z,39.03
2018-11-12T03:21:42.100Z,38.13
2018-11-12T03:24:10.332Z,37.97
2018-11-12T03:26:38.527Z,50.20
2018-11-12T03:29:06.921Z,34.27
2018-11-12T03:31:35.385Z,40.60
2018-11-12T03:34:03.645Z,34.10
2018-11-12T03:36:31.868Z,40.25
2018-11-12T03:39:00.114Z,39.98
2018-11-12T03:41:28.316Z,35.87
2018-11-12T03:43:56.705Z,46.13
2018-11-12T03:46:24.950Z,42.00
2018-11-12T03:48:53.566Z,37.90
2018-11-12T03:51:21.773Z,51.50
2018-11-12T03:58:48.327Z,43.15
2018-11-12T04:01:16.463Z,46.90
2018-11-12T04:03:44.664Z,43.50
2018-11-12T04:06:12.820Z,39.63
2018-11-12T04:08:41.024Z,53.43
2018-11-12T04:11:10.165Z,49.08
2018-11-12T04:13:38.384Z,47.20
2018-11-12T04:16:06.663Z,53.38
2018-11-12T04:18:35.336Z,43.02
2018-11-12T04:21:03.561Z,51.07
2018-11-12T04:23:31.796Z,44.48
2018-11-12T04:26:00.057Z,38.70
2018-11-12T04:28:28.270Z,47.60
2018-11-12T04:30:57.124Z,43.80
2018-11-12T04:33:25.329Z,45.47
2018-11-12T04:40:59.559Z,38.00
2018-11-12T04:43:27.812Z,39.13
2018-11-12T04:45:56.080Z,41.40
2018-11-12T04:48:24.283Z,45.97
2018-11-12T04:50:52.496Z,47.73
2018-11-12T04:53:20.751Z,44.08
2018-11-12T04:55:48.984Z,39.05
2018-11-12T04:58:17.183Z,45.05
2018-11-12T05:00:45.380Z,52.10
2018-11-12T05:03:13.632Z,47.60
2018-11-12T05:05:41.836Z,43.40
2018-11-12T05:08:10.175Z,43.05
2018-11-12T05:10:38.358Z,43.73
2018-11-12T05:13:06.564Z,43.40
2018-11-12T05:15:34.841Z,53.37
2018-11-12T05:18:03.088Z,42.67
2018-11-12T05:20:31.293Z,42.73
2018-11-12T05:23:00.078Z,45.28
2018-11-12T05:25:28.287Z,47.77
2018-11-12T05:27:56.500Z,50.80
2018-11-12T05:30:26.065Z,50.40
2018-11-12T05:32:54.736Z,39.13
2018-11-12T05:35:24.167Z,38.92
2018-11-12T05:37:52.700Z,38.10
2018-11-12T05:40:23.416Z,42.27
2018-11-12T05:42:51.611Z,38.77
2018-11-12T05:45:21.051Z,40.40
2018-11-12T05:47:50.154Z,37.03
2018-11-12T05:50:20.800Z,41.33
2018-11-12T05:52:50.250Z,37.43
2018-11-12T05:55:20.822Z,38.78
2018-11-12T05:57:49.186Z,38.33
2018-11-12T06:00:22.916Z,41.47
2018-11-12T06:02:51.574Z,39.55
2018-11-12T06:05:19.812Z,38.23
2018-11-12T06:07:48.303Z,42.93
2018-11-12T06:10:17.911Z,41.67
2018-11-12T06:12:46.693Z,41.75
2018-11-12T06:15:15.162Z,43.27
2018-11-12T06:17:44.000Z,43.93
2018-11-12T06:20:20.776Z,40.47
2018-11-12T06:22:49.086Z,55.87
2018-11-12T06:25:19.767Z,45.74
2018-11-12T06:27:48.257Z,41.27
2018-11-12T06:30:18.805Z,41.18
2018-11-12T06:32:47.051Z,40.30
2018-11-12T06:35:15.779Z,47.83
2018-11-12T06:37:44.660Z,39.23
2018-11-12T06:40:17.121Z,42.62
2018-11-12T06:42:45.577Z,48.78
2018-11-12T06:45:15.833Z,42.50
2018-11-12T06:47:45.012Z,44.33
2018-11-12T06:50:15.092Z,41.30
2018-11-12T06:57:40.866Z,43.43
2018-11-12T07:00:14.159Z,42.67
2018-11-12T07:02:42.389Z,44.67
2018-11-12T07:05:11.288Z,37.37
2018-11-12T07:07:40.017Z,37.38
2018-11-12T07:10:10.268Z,42.20
2018-11-12T07:12:38.598Z,43.97
2018-11-12T07:15:08.348Z,39.37
2018-11-12T07:17:36.621Z,44.65
2018-11-12T07:20:06.473Z,34.52
2018-11-12T07:22:35.365Z,38.17
2018-11-12T07:25:04.035Z,35.48
2018-11-12T07:27:32.292Z,45.75
2018-11-12T07:30:00.528Z,37.13
2018-11-12T07:37:22.304Z,38.00
2018-11-12T07:39:50.580Z,49.63
2018-11-12T07:42:18.852Z,36.13
2018-11-12T07:44:47.051Z,37.47
2018-11-12T07:47:15.530Z,38.73
2018-11-12T07:49:43.834Z,42.43
2018-11-12T07:52:12.097Z,36.70
2018-11-12T07:54:40.498Z,34.40
2018-11-12T07:57:08.691Z,42.73
2018-11-12T07:59:37.319Z,36.45
2018-11-12T08:02:05.590Z,32.23
2018-11-12T08:04:33.827Z,37.28
2018-11-12T08:07:02.098Z,38.30
2018-11-12T08:09:30.347Z,43.30
2018-11-12T08:11:58.586Z,31.30
2018-11-12T08:14:26.848Z,38.40
2018-11-12T08:16:55.041Z,34.60
2018-11-12T08:19:23.259Z,39.97
2018-11-12T08:21:51.609Z,30.10
2018-11-12T08:24:19.846Z,36.13
2018-11-12T08:26:51.122Z,33.80
2018-11-12T08:29:19.324Z,32.20
2018-11-12T08:31:47.878Z,36.33
2018-11-12T08:34:16.100Z,32.70
2018-11-12T08:36:44.327Z,31.20
2018-11-12T08:39:17.159Z,32.63
2018-11-12T08:41:45.331Z,27.63
2018-11-12T08:44:13.598Z,32.30
2018-11-12T08:46:41.840Z,29.07
2018-11-12T08:49:10.176Z,26.37
2018-11-12T08:51:38.403Z,36.47
2018-11-12T08:54:06.705Z,32.17
2018-11-12T08:56:38.683Z,28.75
2018-11-12T08:59:06.996Z,28.35
2018-11-12T09:01:35.124Z,29.53
2018-11-12T09:04:03.391Z,29.77
2018-11-12T09:06:31.600Z,29.90
2018-11-12T09:08:59.921Z,35.27
2018-11-12T09:11:28.380Z,31.03
2018-11-12T09:13:56.661Z,26.68
2018-11-12T09:16:25.016Z,25.65
2018-11-12T09:18:53.460Z,29.60
2018-11-12T09:21:22.432Z,28.35
2018-11-12T09:23:50.659Z,27.37
2018-11-12T09:26:18.865Z,28.40
2018-11-12T09:28:47.696Z,28.90
2018-11-12T09:31:17.399Z,26.13
2018-11-12T09:33:44.189Z,28.03
2018-11-12T09:36:12.584Z,25.50
2018-11-12T09:38:40.844Z,30.00
2018-11-12T09:41:09.005Z,21.93
2018-11-12T09:43:37.241Z,25.03
2018-11-12T09:46:05.857Z,21.57
2018-11-12T09:48:34.223Z,19.63
2018-11-12T09:51:02.446Z,25.50
2018-11-12T09:53:31.636Z,23.57
2018-11-12T09:55:59.821Z,21.83
2018-11-12T09:58:28.022Z,24.80
2018-11-12T10:00:56.604Z,24.03
2018-11-12T10:03:27.604Z,23.00
2018-11-12T10:05:57.453Z,19.57
2018-11-12T10:08:26.012Z,22.83
2018-11-12T10:10:59.200Z,19.53
2018-11-12T10:13:28.179Z,22.37
2018-11-12T10:15:58.023Z,21.07
2018-11-12T10:18:23.189Z,25.40
2018-11-12T10:20:51.973Z,20.08
2018-11-12T10:23:20.894Z,16.73
2018-11-12T10:25:49.300Z,19.93
2018-11-12T10:28:18.695Z,21.40
2018-11-12T10:30:46.941Z,17.30
2018-11-12T10:33:15.501Z,18.12
2018-11-12T10:35:43.764Z,19.87
2018-11-12T10:38:12.087Z,24.83
2018-11-12T10:40:40.350Z,19.00
2018-11-12T10:43:08.639Z,21.40
2018-11-12T10:45:36.872Z,20.63
2018-11-12T10:48:05.526Z,19.48
2018-11-12T10:50:33.745Z,16.87
2018-11-12T10:53:01.988Z,17.87
2018-11-12T10:55:31.440Z,20.80
2018-11-12T10:57:59.628Z,18.23
2018-11-12T11:00:36.387Z,16.03
2018-11-12T11:03:11.396Z,17.42
2018-11-12T11:05:40.828Z,14.93
2018-11-12T11:08:09.017Z,17.77
2018-11-12T11:10:37.291Z,15.73
2018-11-12T11:13:10.127Z,17.63
2018-11-12T11:15:39.653Z,14.87
2018-11-12T11:18:08.103Z,18.40
2018-11-12T11:20:36.381Z,17.17
2018-11-12T11:23:04.757Z,12.43
2018-11-12T11:25:34.256Z,13.54
2018-11-12T11:28:05.520Z,16.57
2018-11-12T11:30:34.809Z,14.73
2018-11-12T11:33:03.107Z,14.47
2018-11-12T11:35:31.360Z,10.60
2018-11-12T11:37:59.561Z,12.60
2018-11-12T11:40:28.364Z,11.45
2018-11-12T11:43:00.105Z,13.47
2018-11-12T11:45:28.308Z,10.87
2018-11-12T11:47:56.594Z,13.10
2018-11-12T11:50:26.286Z,12.10
2018-11-12T11:52:55.205Z,10.20
2018-11-12T11:55:24.381Z,12.03
2018-11-12T11:57:56.418Z,9.30
2018-11-12T12:00:26.564Z,12.07
2018-11-12T12:02:56.977Z,7.83
2018-11-12T12:05:26.412Z,10.45
2018-11-12T12:07:56.248Z,9.23
2018-11-12T12:10:24.609Z,10.00
2018-11-12T12:12:53.344Z,9.60
2018-11-12T12:15:22.438Z,8.43
2018-11-12T12:17:50.764Z,9.67
2018-11-12T12:20:20.623Z,11.15
2018-11-12T12:22:48.942Z,12.73
2018-11-12T12:25:17.734Z,15.33
2018-11-12T12:27:46.482Z,10.05
2018-11-12T12:30:23.688Z,7.93
2018-11-12T12:32:53.043Z,7.15
2018-11-12T12:40:15.343Z,10.48
2018-11-12T12:42:43.735Z,8.43
2018-11-12T12:45:13.488Z,8.33
2018-11-12T12:47:41.876Z,8.58
2018-11-12T12:50:11.542Z,9.75
2018-11-12T12:52:39.758Z,8.25
2018-11-12T12:55:09.058Z,7.87
2018-11-12T12:57:37.331Z,10.53
2018-11-12T13:00:09.749Z,8.17
2018-11-12T13:02:38.670Z,7.77
2018-11-12T13:05:07.403Z,8.18
2018-11-12T13:07:35.682Z,9.20
2018-11-12T13:10:03.986Z,11.67
2018-11-12T13:12:32.189Z,11.10
2018-11-12T13:15:00.692Z,8.50
2018-11-12T13:17:28.692Z,10.97
2018-11-12T13:19:57.104Z,11.30
2018-11-12T13:22:25.322Z,9.03
2018-11-12T13:24:53.558Z,10.97
2018-11-12T13:27:21.767Z,7.70
2018-11-12T13:29:50.022Z,7.35
2018-11-12T13:32:18.276Z,7.30
2018-11-12T13:34:46.511Z,11.60
2018-11-12T13:37:14.788Z,10.17
2018-11-12T13:39:43.054Z,11.80
2018-11-12T13:42:11.254Z,9.23
2018-11-12T13:44:39.470Z,16.70
2018-11-12T13:47:07.681Z,8.20
2018-11-12T13:49:36.028Z,11.20
2018-11-12T13:52:04.520Z,7.67
2018-11-12T13:54:32.719Z,13.35
2018-11-12T13:57:01.005Z,7.50
2018-11-12T13:59:30.144Z,9.87
2018-11-12T14:01:58.338Z,7.62
2018-11-12T14:04:26.561Z,8.30
2018-11-12T14:06:54.784Z,13.80
2018-11-12T14:09:23.053Z,9.30
2018-11-12T14:11:51.289Z,11.00
2018-11-12T14:14:19.548Z,7.80
2018-11-12T14:16:51.055Z,5.87
2018-11-12T14:19:20.009Z,7.75
2018-11-12T14:21:48.274Z,6.80
2018-11-12T14:24:16.471Z,7.07
2018-11-12T14:26:44.744Z,7.93
2018-11-12T14:29:13.002Z,11.45
2018-11-12T14:31:41.230Z,9.73
2018-11-12T14:34:12.768Z,10.67
2018-11-12T14:36:40.971Z,11.23
2018-11-12T14:39:10.366Z,10.43
2018-11-12T14:41:38.658Z,11.63
2018-11-12T14:44:07.036Z,13.67
2018-11-12T14:46:39.339Z,8.88
2018-11-12T14:49:07.680Z,11.00
2018-11-12T14:51:35.860Z,11.90
2018-11-12T14:54:04.144Z,9.20
2018-11-12T14:56:32.353Z,9.25
2018-11-12T14:59:00.627Z,10.03
2018-11-12T15:06:24.710Z,8.83
2018-11-12T15:08:52.920Z,10.27
2018-11-12T15:11:21.147Z,9.03
2018-11-12T15:13:49.355Z,12.03
2018-11-12T15:16:20.776Z,13.63
2018-11-12T15:18:49.679Z,9.15
2018-11-12T15:21:18.005Z,7.87
2018-11-12T15:23:46.520Z,8.97
2018-11-12T15:26:14.817Z,11.03
2018-11-12T15:28:43.076Z,10.95
2018-11-12T15:31:14.964Z,11.38
2018-11-12T15:33:43.312Z,10.20
2018-11-12T15:36:11.475Z,11.93
2018-11-12T15:38:39.700Z,11.67
2018-11-12T15:41:08.028Z,12.07
2018-11-12T15:43:36.228Z,10.70
2018-11-12T15:46:04.435Z,10.10
2018-11-12T15:48:32.680Z,12.20
2018-11-12T15:51:01.057Z,10.80
2018-11-12T15:53:29.595Z,14.63
2018-11-12T15:55:59.143Z,12.30
2018-11-12T15:58:27.355Z,9.17
2018-11-12T16:00:55.594Z,13.90
2018-11-12T16:03:26.795Z,10.50
2018-11-12T16:05:55.101Z,29.00
2018-11-12T16:08:23.328Z,9.30
2018-11-12T16:10:51.568Z,13.10
2018-11-12T16:13:19.983Z,11.00
2018-11-12T16:15:48.959Z,11.10
2018-11-12T16:18:17.244Z,12.68
2018-11-12T16:20:45.606Z,16.77
2018-11-12T16:23:13.987Z,18.50
2018-11-12T16:25:42.355Z,14.73
2018-11-12T16:28:10.716Z,10.80
2018-11-12T16:30:38.978Z,12.85
2018-11-12T16:33:15.244Z,12.18
2018-11-12T16:35:43.456Z,10.40
2018-11-12T16:38:11.836Z,11.30
2018-11-12T16:40:40.150Z,12.23
2018-11-12T16:43:09.065Z,11.60
2018-11-12T16:45:37.302Z,15.43
2018-11-12T16:48:09.198Z,16.30
2018-11-12T16:50:37.411Z,13.10
2018-11-12T16:53:06.062Z,10.20
2018-11-12T16:55:34.913Z,13.50
2018-11-12T16:58:03.496Z,14.50
2018-11-12T17:00:31.789Z,12.70
2018-11-12T17:03:03.116Z,11.10
2018-11-12T17:05:31.321Z,14.65
2018-11-12T17:07:59.802Z,17.73
2018-11-12T17:10:28.041Z,10.86
2018-11-12T17:12:56.357Z,13.15
2018-11-12T17:15:24.679Z,19.27
2018-11-12T17:17:53.017Z,16.57
2018-11-12T17:20:21.836Z,14.03
2018-11-12T17:22:50.185Z,11.50
2018-11-12T17:25:18.982Z,12.15
2018-11-12T17:27:47.600Z,13.20
2018-11-12T17:30:18.202Z,14.35
2018-11-12T17:32:46.885Z,14.83
2018-11-12T17:35:16.295Z,18.77
2018-11-12T17:37:44.563Z,11.40
2018-11-12T17:40:16.421Z,13.75
2018-11-12T17:42:45.832Z,11.97
2018-11-12T17:45:15.456Z,14.50
2018-11-12T17:47:44.904Z,16.87
2018-11-12T17:50:13.135Z,16.60
2018-11-12T17:52:41.820Z,15.32
2018-11-12T17:55:10.989Z,15.90
2018-11-12T17:57:40.219Z,17.23
2018-11-12T18:00:12.738Z,16.50
2018-11-12T18:02:40.966Z,17.93
2018-11-12T18:05:09.807Z,16.57
2018-11-12T18:07:38.239Z,17.92
2018-11-12T18:10:07.584Z,23.87
2018-11-12T18:12:36.399Z,14.50
2018-11-12T18:15:05.906Z,13.60
2018-11-12T18:17:34.500Z,15.70
2018-11-12T18:20:06.812Z,20.60
2018-11-12T18:22:34.999Z,17.00
2018-11-12T18:25:03.224Z,17.53
2018-11-12T18:27:31.433Z,18.10
2018-11-12T18:29:59.878Z,17.48
2018-11-12T18:32:28.061Z,17.67
2018-11-12T18:34:56.272Z,14.30
2018-11-12T18:37:24.563Z,20.23
2018-11-12T18:39:52.818Z,17.73
2018-11-12T18:42:21.068Z,17.27
2018-11-12T18:44:49.392Z,18.20
2018-11-12T18:47:17.545Z,16.23
2018-11-12T18:49:45.778Z,16.70
2018-11-12T18:52:14.074Z,16.27
2018-11-12T18:54:42.304Z,20.87
2018-11-12T18:57:10.734Z,16.70
2018-11-12T18:59:39.040Z,16.77
2018-11-12T19:02:07.371Z,20.88
2018-11-12T19:04:42.461Z,17.13
2018-11-12T19:07:17.640Z,16.17
2018-11-12T19:09:45.879Z,16.40
2018-11-12T19:12:14.300Z,12.80
2018-11-12T19:14:42.509Z,19.63
2018-11-12T19:17:11.629Z,22.80
2018-11-12T19:19:39.852Z,20.93
2018-11-12T19:22:08.080Z,18.90
2018-11-12T19:24:36.796Z,15.23
2018-11-12T19:27:05.249Z,17.03
2018-11-12T19:29:33.515Z,15.18
2018-11-12T19:32:01.801Z,18.70
2018-11-12T19:34:30.060Z,14.63
2018-11-12T19:37:02.480Z,19.00
2018-11-12T19:39:30.828Z,17.83
2018-11-12T19:41:59.284Z,15.50
2018-11-12T19:44:27.649Z,17.80
2018-11-12T19:46:56.014Z,15.58
2018-11-12T19:49:24.370Z,15.43
2018-11-12T19:51:52.720Z,15.93
2018-11-12T19:54:21.905Z,21.97
2018-11-12T19:56:50.236Z,17.40
2018-11-12T19:59:18.532Z,17.17
2018-11-12T20:01:46.846Z,16.83
2018-11-12T20:04:15.455Z,18.40
2018-11-12T20:06:46.674Z,17.02
2018-11-12T20:09:14.889Z,19.50
2018-11-12T20:11:43.247Z,19.35
2018-11-12T20:14:11.683Z,17.50
2018-11-12T20:16:39.980Z,18.47
2018-11-12T20:19:08.616Z,20.73
2018-11-12T20:21:40.610Z,15.70
2018-11-12T20:24:08.918Z,19.73
2018-11-12T20:26:37.203Z,18.40
2018-11-12T20:29:05.476Z,14.77
2018-11-12T20:31:33.983Z,16.93
2018-11-12T20:34:02.319Z,15.18
2018-11-12T20:36:31.470Z,15.50
2018-11-12T20:38:59.737Z,14.70
2018-11-12T20:41:27.864Z,15.70
2018-11-12T20:43:56.462Z,14.70
2018-11-12T20:46:24.686Z,19.13
2018-11-12T20:48:52.920Z,19.10
2018-11-12T20:51:24.596Z,16.40
2018-11-12T20:53:52.816Z,18.77
2018-11-12T20:56:22.414Z,16.55
2018-11-12T20:58:50.690Z,15.53
2018-11-12T21:01:18.921Z,14.80
2018-11-12T21:03:47.308Z,15.57
2018-11-12T21:06:16.300Z,14.00
2018-11-12T21:08:47.588Z,19.43
2018-11-12T21:11:16.746Z,16.42
2018-11-12T21:13:45.329Z,18.20
2018-11-12T21:16:13.545Z,21.57
2018-11-12T21:18:41.888Z,15.73
2018-11-12T21:21:10.101Z,17.67
2018-11-12T21:23:41.436Z,16.90
2018-11-12T21:26:09.731Z,15.48
2018-11-12T21:28:38.076Z,19.77
2018-11-12T21:31:06.708Z,20.35
2018-11-12T21:33:34.914Z,20.33
2018-11-12T21:36:03.148Z,20.77
2018-11-12T21:38:31.344Z,21.80
2018-11-12T21:41:00.098Z,19.10
2018-11-12T21:43:28.505Z,21.40
2018-11-12T21:45:56.604Z,22.10
2018-11-12T21:48:24.974Z,15.20
2018-11-12T21:50:53.192Z,22.70
2018-11-12T21:53:21.388Z,20.17
2018-11-12T21:55:49.701Z,18.33
2018-11-12T21:58:18.124Z,18.53
2018-11-12T22:00:46.365Z,19.25
2018-11-12T22:03:15.392Z,16.50
2018-11-12T22:05:43.596Z,19.10
2018-11-12T22:08:14.916Z,18.40
2018-11-12T22:10:43.118Z,22.50
2018-11-12T22:13:11.302Z,19.80
2018-11-12T22:15:39.524Z,16.95
2018-11-12T22:18:07.786Z,20.65
2018-11-12T22:20:36.021Z,20.70
2018-11-12T22:23:08.463Z,19.07
2018-11-12T22:25:36.650Z,17.37
2018-11-12T22:28:05.668Z,19.87
2018-11-12T22:30:33.804Z,24.00
2018-11-12T22:33:02.030Z,19.83
2018-11-12T22:35:30.645Z,21.60
2018-11-12T22:37:58.902Z,26.20
2018-11-12T22:40:27.066Z,18.93
2018-11-12T22:42:55.281Z,19.50
2018-11-12T22:45:24.652Z,19.50
2018-11-12T22:47:53.118Z,16.80
2018-11-12T22:50:21.544Z,17.07
2018-11-12T22:52:49.974Z,17.52
2018-11-12T22:55:18.893Z,18.97
2018-11-12T22:57:47.107Z,21.37
2018-11-12T23:00:22.582Z,19.47
2018-11-12T23:02:51.296Z,18.87
2018-11-12T23:05:20.061Z,17.87
2018-11-12T23:07:49.229Z,17.40
2018-11-12T23:10:18.072Z,17.20
2018-11-12T23:12:46.367Z,15.43
2018-11-12T23:15:15.169Z,17.53
2018-11-12T23:17:43.459Z,16.27
2018-11-12T23:20:15.760Z,17.50
2018-11-12T23:22:44.707Z,15.18
2018-11-12T23:25:13.122Z,23.65
2018-11-12T23:27:42.352Z,16.40
2018-11-12T23:30:12.232Z,23.43
2018-11-12T23:32:40.476Z,15.20
2018-11-12T23:35:10.841Z,19.73
2018-11-12T23:37:39.426Z,17.13
2018-11-12T23:40:08.573Z,17.45
2018-11-12T23:42:36.957Z,19.94
2018-11-12T23:45:05.619Z,13.37
2018-11-12T23:47:34.164Z,16.27
2018-11-12T23:50:02.418Z,17.90
2018-11-12T23:52:30.704Z,15.47
2018-11-12T23:54:59.095Z,15.03
2018-11-12T23:57:27.274Z,14.60
2018-11-12T23:59:55.528Z,14.37
